createdAt,value
2022-08-19T00:00:56.854Z,24.3
2022-08-19T00:06:34.495Z,24.3
2022-08-19T00:12:16.149Z,24.3
2022-08-19T00:18:02.834Z,24.3
2022-08-19T00:23:24.103Z,24.3
2022-08-19T00:29:42.745Z,24.3
2022-08-19T00:35:04.042Z,24.3
2022-08-19T00:40:50.199Z,24.3
2022-08-19T00:45:42.883Z,24.3
2022-08-19T00:51:26.176Z,24.3
2022-08-19T00:57:05.584Z,24.3
2022-08-19T01:03:08.257Z,24.3
2022-08-19T01:09:17.903Z,24.3
2022-08-19T01:15:12.899Z,24.3
2022-08-19T01:20:51.088Z,24.3
2022-08-19T01:26:54.961Z,24.3
2022-08-19T01:33:24.324Z,24.3
2022-08-19T01:39:06.661Z,24.3
2022-08-19T01:45:23.628Z,24.3
2022-08-19T01:51:04.596Z,24.3
2022-08-19T01:56:40.805Z,24.3
2022-08-19T02:02:21.760Z,24.3
2022-08-19T02:08:06.685Z,24.3
2022-08-19T02:14:00.383Z,24.3
2022-08-19T02:19:39.017Z,24.3
2022-08-19T02:25:26.464Z,24.3
2022-08-19T02:31:05.067Z,24.3
2022-08-19T02:37:03.167Z,24.3
2022-08-19T02:42:46.996Z,24.3
2022-08-19T02:49:12.323Z,24.3
2022-08-19T02:54:52.762Z,24.3
2022-08-19T03:00:22.367Z,24.3
2022-08-19T03:06:29.841Z,24.3
2022-08-19T03:12:14.702Z,24.3
2022-08-19T03:17:40.285Z,24.3
2022-08-19T03:23:18.448Z,24.3
2022-08-19T03:29:30.534Z,24.3
2022-08-19T03:35:54.090Z,24.3
2022-08-19T03:42:30.243Z,23.8
2022-08-19T03:48:14.516Z,23.4
2022-08-19T03:54:00.887Z,23.4
2022-08-19T03:59:44.391Z,23.4
2022-08-19T04:05:47.219Z,23.4
2022-08-19T04:11:42.833Z,23.3
2022-08-19T04:17:09.056Z,23.2
2022-08-19T04:22:37.241Z,23.1
2022-08-19T04:28:22.191Z,23.2
2022-08-19T04:34:05.061Z,23.3
2022-08-19T04:40:21.559Z,23.4
2022-08-19T04:46:23.503Z,23.3
2022-08-19T04:52:56.114Z,23.4
2022-08-19T04:58:55.473Z,23.4
2022-08-19T05:04:21.287Z,23.4
2022-08-19T05:10:32.668Z,23.4
2022-08-19T05:16:13.848Z,23.4
2022-08-19T05:22:12.733Z,23.4
2022-08-19T05:28:06.056Z,23.4
2022-08-19T05:34:18.399Z,23.5
2022-08-19T05:39:57.182Z,23.6
2022-08-19T05:45:40.728Z,23.6
2022-08-19T05:51:27.295Z,23.6
2022-08-19T05:57:06.944Z,23.7
2022-08-19T06:02:45.543Z,23.7
2022-08-19T06:08:51.080Z,23.7
2022-08-19T06:14:55.948Z,23.8
2022-08-19T06:21:03.184Z,23.8
2022-08-19T06:32:45.163Z,23.8
2022-08-19T06:38:23.213Z,23.8
2022-08-19T06:44:20.705Z,23.9
2022-08-19T06:50:25.658Z,23.9
2022-08-19T06:56:53.194Z,23.9
2022-08-19T07:02:32.562Z,23.9
2022-08-19T07:09:21.182Z,23.9
2022-08-19T07:15:28.573Z,23.9
2022-08-19T07:21:35.428Z,23.9
2022-08-19T07:27:54.290Z,24
2022-08-19T07:34:12.319Z,24
2022-08-19T07:39:51.610Z,24
2022-08-19T07:45:40.151Z,24
2022-08-19T07:51:54.419Z,24
2022-08-19T07:58:08.349Z,24.1
2022-08-19T08:03:56.320Z,24.1
2022-08-19T08:09:58.011Z,24.1
2022-08-19T08:16:57.309Z,24.1
2022-08-19T08:23:24.223Z,24.1
2022-08-19T08:29:34.692Z,24.1
2022-08-19T08:35:30.979Z,24.1
2022-08-19T08:41:15.911Z,24.1
2022-08-19T08:47:37.277Z,24.1
2022-08-19T08:53:29.148Z,24.1
2022-08-19T08:59:28.350Z,24.1
2022-08-19T09:05:16.384Z,24.2
2022-08-19T09:12:17.899Z,24.2
2022-08-19T09:18:52.989Z,24.2
2022-08-19T09:25:05.018Z,24.2
2022-08-19T09:31:43.077Z,24.2
2022-08-19T09:38:17.796Z,24.2
2022-08-19T09:44:35.732Z,24.2
2022-08-19T09:50:05.176Z,24.2
2022-08-19T09:56:14.621Z,24.3
2022-08-19T10:02:03.743Z,24.3
2022-08-19T10:08:38.451Z,24.3
2022-08-19T10:15:20.503Z,24.3
2022-08-19T10:22:10.008Z,24.3
2022-08-19T10:27:52.952Z,24.3
2022-08-19T10:35:06.159Z,24.3
2022-08-19T10:41:29.303Z,24.3
2022-08-19T10:47:05.363Z,24.3
2022-08-19T10:53:27.181Z,24.3
2022-08-19T10:59:53.450Z,24.3
2022-08-19T11:05:53.904Z,24.3
2022-08-19T11:11:41.028Z,24.3
2022-08-19T11:17:28.509Z,24.3
2022-08-19T11:23:15.266Z,24.3
2022-08-19T11:28:52.770Z,24.3
2022-08-19T11:34:38.145Z,24.3
2022-08-19T11:40:15.322Z,24.3
2022-08-19T11:45:52.889Z,24.3
2022-08-19T11:51:42.930Z,24.3
2022-08-19T11:57:24.580Z,24.3
2022-08-19T12:03:12.505Z,24.4
2022-08-19T12:08:54.219Z,24.4
2022-08-19T12:14:48.540Z,24.4
2022-08-19T12:20:18.055Z,24.4
2022-08-19T12:25:57.815Z,24.4
2022-08-19T12:31:54.622Z,24.4
2022-08-19T12:37:34.538Z,24.4
2022-08-19T12:43:25.206Z,24.4
2022-08-19T12:50:26.581Z,24.4
2022-08-19T12:56:11.546Z,24.4
2022-08-19T13:01:40.884Z,24.4
2022-08-19T13:07:25.732Z,24.4
2022-08-19T13:13:02.847Z,24.4
2022-08-19T13:18:52.132Z,24.4
2022-08-19T13:24:48.860Z,24.4
2022-08-19T13:30:33.518Z,24.4
2022-08-19T13:36:23.172Z,24.4
2022-08-19T13:42:05.434Z,24.4
2022-08-19T13:47:57.071Z,24.4
2022-08-19T13:53:37.964Z,24.4
2022-08-19T13:59:26.850Z,24.4
2022-08-19T14:05:05.558Z,24.4
2022-08-19T14:10:42.518Z,24.4
2022-08-19T14:16:28.053Z,24.4
2022-08-19T14:22:15.745Z,24.4
2022-08-19T14:28:00.511Z,24.5
2022-08-19T14:33:47.360Z,24.5
2022-08-19T14:39:38.418Z,24.5
2022-08-19T14:45:00.730Z,24.5
2022-08-19T14:51:02.565Z,24.5
2022-08-19T14:56:47.778Z,24.5
2022-08-19T15:02:53.467Z,24.5
2022-08-19T15:08:42.794Z,24.6
2022-08-19T15:14:35.081Z,24.6
2022-08-19T15:20:16.409Z,24.6
2022-08-19T15:25:56.513Z,24.6
2022-08-19T15:31:46.252Z,24.5
2022-08-19T15:37:25.939Z,24.6
2022-08-19T15:43:04.284Z,24.6
2022-08-19T15:48:49.096Z,24.6
2022-08-19T15:54:41.468Z,24.6
2022-08-19T16:01:12.649Z,24.6
2022-08-19T16:07:16.346Z,24.6
2022-08-19T16:13:37.463Z,24.6
2022-08-19T16:19:21.119Z,24.6
2022-08-19T16:25:01.413Z,24.6
2022-08-19T16:31:08.664Z,24.6
2022-08-19T16:36:52.289Z,24.6
2022-08-19T16:42:30.077Z,24.6
2022-08-19T16:48:05.561Z,24.6
2022-08-19T16:54:32.453Z,24.6
2022-08-19T17:00:22.387Z,24.7
2022-08-19T17:06:06.273Z,24.6
2022-08-19T17:12:23.304Z,24.6
2022-08-19T17:18:09.061Z,24.6
2022-08-19T17:24:00.784Z,24.6
2022-08-19T17:29:23.808Z,24.6
2022-08-19T17:35:13.382Z,24.6
2022-08-19T17:40:57.635Z,24.6
2022-08-19T17:46:52.386Z,24.6
2022-08-19T17:52:35.308Z,24.7
2022-08-19T17:58:21.007Z,24.6
2022-08-19T18:04:27.473Z,24.6
2022-08-19T18:10:19.537Z,24.7
2022-08-19T18:16:03.635Z,24.7
2022-08-19T18:21:37.901Z,24.7
2022-08-19T18:27:59.014Z,24.7
2022-08-19T18:33:44.110Z,24.7
2022-08-19T18:39:09.657Z,24.7
2022-08-19T18:44:49.903Z,24.7
2022-08-19T18:50:57.144Z,24.7
2022-08-19T18:56:34.512Z,24.7
2022-08-19T19:02:13.787Z,24.7
2022-08-19T19:07:52.862Z,24.7
2022-08-19T19:13:31.500Z,24.7
2022-08-19T19:19:17.017Z,24.7
2022-08-19T19:25:10.796Z,24.7
2022-08-19T19:31:16.614Z,24.8
2022-08-19T19:37:15.287Z,24.8
2022-08-19T19:42:55.529Z,24.8
2022-08-19T19:49:01.372Z,24.8
2022-08-19T19:55:21.715Z,24.8
2022-08-19T20:00:58.747Z,24.8
2022-08-19T20:06:49.927Z,24.8
2022-08-19T20:12:35.878Z,24.8
2022-08-19T20:17:42.115Z,24.8
2022-08-19T20:23:24.101Z,24.8
2022-08-19T20:30:19.168Z,24.8
2022-08-19T20:36:17.045Z,24.8
2022-08-19T20:42:00.911Z,24.8
2022-08-19T20:48:01.266Z,24.8
2022-08-19T20:53:44.136Z,24.8
2022-08-19T20:59:29.455Z,24.8
2022-08-19T21:05:07.904Z,24.8
2022-08-19T21:11:15.999Z,24.8
2022-08-19T21:17:01.154Z,24.8
2022-08-19T21:22:43.013Z,24.8
2022-08-19T21:28:30.078Z,24.8
2022-08-19T21:34:21.920Z,24.8
2022-08-19T21:40:11.627Z,24.8
2022-08-19T21:45:29.188Z,24.8
2022-08-19T21:51:07.694Z,24.8
2022-08-19T21:56:51.592Z,24.8
2022-08-19T22:02:53.187Z,24.8
2022-08-19T22:08:17.275Z,24.8
2022-08-19T22:13:58.673Z,24.8
2022-08-19T22:19:37.603Z,24.8
2022-08-19T22:25:48.729Z,24.8
2022-08-19T22:31:41.771Z,24.8
2022-08-19T22:37:31.706Z,24.8
2022-08-19T22:42:40.269Z,24.8
2022-08-19T22:48:19.693Z,24.8
2022-08-19T22:53:58.615Z,24.8
2022-08-19T22:59:40.669Z,24.8
2022-08-19T23:05:39.492Z,24.8
2022-08-19T23:11:33.693Z,24.8
2022-08-19T23:17:16.533Z,24.8
2022-08-19T23:22:43.325Z,24.8
2022-08-19T23:28:29.610Z,24.8
2022-08-19T23:34:25.617Z,24.8
2022-08-19T23:40:04.705Z,24.8
2022-08-19T23:46:10.445Z,24.8
2022-08-19T23:51:44.779Z,24.8
2022-08-19T23:57:48.368Z,24.8
